Time;durP1;ratioP1;P1;durP2;ratioP2;P2;SDS_P1;SDS_P2;PMS_P1;PMS_P2;Temp;Humidity;BMP_temperature;BMP_pressure;BME280_temperature;BME280_humidity;BME280_pressure;Samples;Min_cycle;Max_cycle;Signal;HPM_P1;HPM_P2
2021/05/10 00:00:52;;;;;;;5.60;2.55;;;20.10;39.50;;;;;;5092944;28;20032;-67
2021/05/10 00:03:19;;;;;;;3.65;2.08;;;20.10;39.50;;;;;;5092892;28;20047;-67
2021/05/10 00:05:45;;;;;;;3.47;1.90;;;20.10;39.50;;;;;;5093035;28;20089;-67
2021/05/10 00:08:11;;;;;;;5.68;2.75;;;20.00;39.50;;;;;;5092677;28;20531;-67
2021/05/10 00:10:38;;;;;;;4.75;2.38;;;20.10;39.50;;;;;;5093204;28;20092;-67
2021/05/10 00:13:05;;;;;;;3.88;2.10;;;20.00;39.50;;;;;;5093049;28;20028;-67
2021/05/10 00:15:31;;;;;;;4.53;2.17;;;20.10;39.50;;;;;;5092969;28;20107;-67
2021/05/10 00:18:02;;;;;;;5.50;2.88;;;20.00;39.50;;;;;;5092577;28;20081;-67
2021/05/10 00:20:33;;;;;;;3.20;1.77;;;20.00;39.50;;;;;;5092881;28;20527;-67
2021/05/10 00:23:00;;;;;;;4.60;2.20;;;20.00;39.50;;;;;;5092750;28;20110;-67
2021/05/10 00:25:26;;;;;;;4.25;2.28;;;20.00;39.50;;;;;;5092601;28;20051;-67
2021/05/10 00:27:53;;;;;;;3.42;1.85;;;20.00;39.50;;;;;;5094739;28;20051;-67
2021/05/10 00:30:20;;;;;;;4.13;2.35;;;20.00;39.50;;;;;;5096420;28;20020;-67
2021/05/10 00:32:46;;;;;;;4.03;2.25;;;20.00;39.50;;;;;;5096116;28;20020;-67
2021/05/10 00:35:15;;;;;;;3.90;2.10;;;20.00;39.60;;;;;;5096283;28;20281;-67
2021/05/10 00:37:43;;;;;;;4.13;2.05;;;20.00;39.50;;;;;;5096439;28;20128;-67
2021/05/10 00:40:10;;;;;;;3.35;1.88;;;20.00;39.50;;;;;;5096316;28;20022;-67
2021/05/10 00:42:37;;;;;;;4.13;2.10;;;20.00;39.60;;;;;;5095079;28;20130;-67
2021/05/10 00:45:03;;;;;;;4.78;2.58;;;20.00;39.50;;;;;;5096433;28;20035;-67
2021/05/10 00:47:28;;;;;;;4.65;2.15;;;20.00;39.50;;;;;;5096203;28;20039;-67
2021/05/10 00:49:54;;;;;;;3.88;1.85;;;20.00;39.50;;;;;;5096567;28;20024;-66
2021/05/10 00:52:19;;;;;;;4.68;2.45;;;20.00;39.50;;;;;;5096198;28;20031;-66
2021/05/10 00:54:45;;;;;;;5.95;2.40;;;20.00;39.60;;;;;;5096181;28;20375;-67
2021/05/10 00:57:12;;;;;;;4.63;2.38;;;19.90;39.60;;;;;;5096456;28;20032;-67
2021/05/10 00:59:38;;;;;;;4.07;2.22;;;19.90;39.60;;;;;;5096244;28;20020;-67
2021/05/10 01:02:04;;;;;;;3.90;1.83;;;19.90;39.60;;;;;;5096081;28;20035;-69
2021/05/10 01:04:30;;;;;;;4.40;2.25;;;19.90;39.60;;;;;;5095872;28;20024;-67
2021/05/10 01:06:55;;;;;;;4.32;2.00;;;19.90;39.60;;;;;;5096006;28;20321;-67
2021/05/10 01:09:21;;;;;;;5.05;2.42;;;20.00;39.60;;;;;;5095696;28;20387;-67
2021/05/10 01:11:46;;;;;;;3.20;1.80;;;19.90;39.60;;;;;;5095679;28;20486;-67
2021/05/10 01:14:12;;;;;;;3.83;2.03;;;19.90;39.60;;;;;;5095538;28;20028;-67
2021/05/10 01:16:37;;;;;;;4.38;2.30;;;19.90;39.60;;;;;;5095857;28;20032;-67
2021/05/10 01:19:04;;;;;;;3.55;1.90;;;19.90;39.60;;;;;;5095751;28;20024;-67
2021/05/10 01:21:31;;;;;;;4.13;2.30;;;19.90;39.60;;;;;;5096196;28;20020;-67
2021/05/10 01:23:58;;;;;;;4.00;2.00;;;19.90;39.60;;;;;;5095442;28;20044;-67
2021/05/10 01:26:24;;;;;;;4.43;2.42;;;19.90;39.60;;;;;;5096417;28;20025;-67
2021/05/10 01:28:50;;;;;;;4.72;2.40;;;19.90;39.60;;;;;;5096808;28;20081;-67
2021/05/10 01:31:16;;;;;;;3.78;1.85;;;19.90;39.60;;;;;;5100339;28;20028;-68
2021/05/10 01:33:42;;;;;;;4.40;2.05;;;19.90;39.60;;;;;;5105385;28;20027;-67
2021/05/10 01:36:08;;;;;;;4.82;2.47;;;19.90;39.60;;;;;;5104208;28;20349;-67
2021/05/10 01:38:34;;;;;;;5.35;2.42;;;19.90;39.60;;;;;;5104101;28;20036;-67
2021/05/10 01:40:59;;;;;;;5.18;2.53;;;19.90;39.60;;;;;;5105124;28;20092;-67
2021/05/10 01:43:25;;;;;;;4.53;2.50;;;19.80;39.60;;;;;;5106481;28;20032;-67
2021/05/10 01:45:51;;;;;;;3.75;1.95;;;19.90;39.60;;;;;;5103907;28;20087;-68
2021/05/10 01:48:16;;;;;;;5.38;2.33;;;19.80;39.60;;;;;;5104052;28;20046;-67
2021/05/10 01:50:45;;;;;;;4.47;2.42;;;19.80;39.60;;;;;;5100493;28;20372;-68
2021/05/10 01:53:11;;;;;;;5.30;2.58;;;19.80;39.60;;;;;;5094455;28;20020;-67
2021/05/10 01:55:38;;;;;;;3.88;2.15;;;19.80;39.60;;;;;;5095290;28;20146;-67
2021/05/10 01:58:05;;;;;;;4.25;2.25;;;19.80;39.60;;;;;;5094866;28;20035;-67
2021/05/10 02:00:33;;;;;;;3.90;2.20;;;19.80;39.60;;;;;;5094783;28;20020;-67
2021/05/10 02:03:00;;;;;;;4.60;2.38;;;19.80;39.70;;;;;;5094661;28;20024;-67
2021/05/10 02:05:26;;;;;;;3.97;2.30;;;19.80;39.70;;;;;;5094524;28;20019;-67
2021/05/10 02:07:54;;;;;;;4.65;2.40;;;19.70;39.70;;;;;;5094601;28;20463;-67
2021/05/10 02:10:32;;;;;;;4.85;2.35;;;19.80;39.70;;;;;;5094541;28;20051;-67
2021/05/10 02:13:04;;;;;;;4.53;2.50;;;19.80;39.60;;;;;;5094553;28;20095;-67
2021/05/10 02:15:33;;;;;;;4.45;2.38;;;19.80;39.70;;;;;;5094436;28;20372;-67
2021/05/10 02:17:59;;;;;;;5.15;2.28;;;19.80;39.70;;;;;;5094480;28;20093;-67
2021/05/10 02:20:26;;;;;;;4.00;2.13;;;19.80;39.60;;;;;;5094746;28;20028;-68
2021/05/10 02:23:02;;;;;;;4.35;2.25;;;19.80;39.70;;;;;;5094465;28;20110;-67
2021/05/10 02:25:39;;;;;;;5.13;2.40;;;19.70;39.70;;;;;;5094352;28;20442;-67
2021/05/10 02:28:06;;;;;;;5.22;2.47;;;19.80;39.70;;;;;;5094339;28;20085;-67
2021/05/10 02:30:33;;;;;;;3.92;1.98;;;19.70;39.70;;;;;;5094114;28;20467;-67
2021/05/10 02:33:02;;;;;;;4.85;2.38;;;19.70;39.70;;;;;;5094255;28;20483;-67
2021/05/10 02:35:27;;;;;;;4.90;2.50;;;19.80;39.70;;;;;;5093994;28;20371;-67
2021/05/10 02:37:54;;;;;;;4.93;2.60;;;19.80;39.70;;;;;;5093632;28;20024;-67
2021/05/10 02:40:21;;;;;;;4.60;2.40;;;19.70;39.70;;;;;;5092321;28;20111;-67
2021/05/10 02:42:47;;;;;;;4.80;2.55;;;19.80;39.70;;;;;;5093460;28;20024;-67
2021/05/10 02:45:14;;;;;;;4.00;2.30;;;19.70;39.70;;;;;;5093569;28;20024;-67
2021/05/10 02:48:36;;;;;;;4.68;2.33;;;19.70;39.70;;;;;;5093375;28;20028;-69
2021/05/10 02:51:02;;;;;;;4.25;2.25;;;19.70;39.70;;;;;;5092774;28;20031;-67
2021/05/10 02:53:28;;;;;;;4.10;2.30;;;19.70;39.70;;;;;;5093106;28;20479;-67
2021/05/10 02:55:53;;;;;;;5.38;2.63;;;19.70;39.70;;;;;;5091900;28;20024;-67
2021/05/10 02:58:19;;;;;;;4.28;2.33;;;19.70;39.70;;;;;;5093025;28;20036;-68
2021/05/10 03:00:44;;;;;;;5.22;2.83;;;19.70;39.70;;;;;;5093092;28;20027;-67
2021/05/10 03:03:10;;;;;;;5.28;2.65;;;19.70;39.70;;;;;;5093333;28;20020;-67
2021/05/10 03:05:36;;;;;;;4.68;2.55;;;19.70;39.80;;;;;;5092941;28;20055;-67
2021/05/10 03:08:02;;;;;;;4.82;2.55;;;19.70;39.70;;;;;;5091768;28;20016;-68
2021/05/10 03:10:27;;;;;;;5.25;2.47;;;19.70;39.70;;;;;;5092992;28;20024;-69
2021/05/10 03:12:54;;;;;;;4.57;2.60;;;19.70;39.70;;;;;;5093246;28;20020;-69
2021/05/10 03:15:21;;;;;;;5.18;2.55;;;19.70;39.70;;;;;;5092934;28;20091;-67
2021/05/10 03:17:49;;;;;;;4.50;2.30;;;19.70;39.70;;;;;;5092954;28;20115;-67
2021/05/10 03:20:17;;;;;;;4.93;2.33;;;19.70;39.70;;;;;;5092828;28;20577;-67
2021/05/10 03:22:43;;;;;;;4.97;2.80;;;19.70;39.70;;;;;;5092708;28;20506;-67
2021/05/10 03:25:09;;;;;;;5.65;3.00;;;19.70;39.70;;;;;;5093009;28;20071;-69
2021/05/10 03:27:41;;;;;;;4.15;2.20;;;19.70;39.70;;;;;;5093135;28;20103;-67
2021/05/10 03:30:18;;;;;;;4.90;2.80;;;19.70;39.70;;;;;;5093174;28;20020;-67
2021/05/10 03:32:45;;;;;;;4.95;2.80;;;19.60;39.70;;;;;;5093365;28;20073;-67
2021/05/10 03:35:13;;;;;;;6.55;2.85;;;19.60;39.70;;;;;;5094017;28;20038;-67
2021/05/10 03:37:39;;;;;;;4.25;2.17;;;19.70;39.70;;;;;;5093524;28;20067;-66
2021/05/10 03:40:07;;;;;;;5.13;2.70;;;19.70;39.70;;;;;;5093753;28;20048;-67
2021/05/10 03:42:32;;;;;;;5.95;3.25;;;19.70;39.70;;;;;;5093442;28;20020;-67
2021/05/10 03:44:58;;;;;;;4.43;2.33;;;19.70;39.70;;;;;;5093279;28;20016;-68
2021/05/10 03:47:33;;;;;;;5.38;2.92;;;19.60;39.70;;;;;;5093016;28;20027;-69
2021/05/10 03:50:02;;;;;;;5.07;2.55;;;19.70;39.70;;;;;;5091841;28;20115;-69
2021/05/10 03:52:27;;;;;;;5.47;2.88;;;19.60;39.70;;;;;;5093122;28;20442;-68
2021/05/10 03:54:53;;;;;;;4.85;2.70;;;19.60;39.70;;;;;;5093446;28;20116;-68
2021/05/10 03:57:18;;;;;;;5.05;2.72;;;19.60;39.80;;;;;;5092977;28;20578;-68
2021/05/10 03:59:44;;;;;;;5.05;2.75;;;19.60;39.80;;;;;;5093261;28;20016;-68
2021/05/10 04:02:09;;;;;;;5.13;2.70;;;19.70;39.70;;;;;;5093514;28;20020;-68
2021/05/10 04:04:42;;;;;;;4.53;2.38;;;19.60;39.70;;;;;;5096743;28;20027;-68
2021/05/10 04:07:24;;;;;;;4.43;2.50;;;19.60;39.80;;;;;;5096871;28;20213;-68
2021/05/10 04:10:19;;;;;;;4.05;2.42;;;19.60;39.70;;;;;;5095348;28;20457;-68
2021/05/10 04:15:29;;;;;;;5.07;2.92;;;19.60;39.80;;;;;;5097078;28;20528;-68
2021/05/10 04:17:55;;;;;;;5.10;2.55;;;19.60;39.80;;;;;;5096631;28;20047;-68
2021/05/10 04:20:20;;;;;;;5.63;2.85;;;19.60;39.80;;;;;;5096868;28;20107;-68
2021/05/10 04:22:46;;;;;;;4.93;2.60;;;19.60;39.70;;;;;;5096524;28;20028;-68
2021/05/10 04:25:12;;;;;;;4.43;2.42;;;19.60;39.80;;;;;;5096508;28;20056;-68
2021/05/10 04:27:37;;;;;;;4.95;2.70;;;19.60;39.80;;;;;;5096683;28;20032;-68
2021/05/10 04:30:04;;;;;;;4.90;2.92;;;19.50;39.80;;;;;;5096663;28;20451;-68
2021/05/10 04:32:29;;;;;;;6.90;3.60;;;19.50;39.80;;;;;;5096279;28;20540;-68
2021/05/10 04:34:55;;;;;;;5.25;2.65;;;19.60;39.80;;;;;;5096471;28;20058;-67
2021/05/10 04:37:21;;;;;;;4.93;2.65;;;19.60;39.80;;;;;;5096361;28;20043;-68
2021/05/10 04:39:47;;;;;;;5.13;2.78;;;19.60;39.80;;;;;;5096485;28;20023;-68
2021/05/10 04:42:12;;;;;;;4.70;2.85;;;19.60;39.80;;;;;;5096347;28;20096;-68
2021/05/10 04:44:38;;;;;;;5.55;3.10;;;19.60;39.80;;;;;;5096461;28;20027;-68
2021/05/10 04:47:03;;;;;;;5.35;3.00;;;19.60;39.80;;;;;;5096027;28;20516;-68
2021/05/10 04:49:29;;;;;;;4.78;2.58;;;19.60;39.80;;;;;;5096115;28;20149;-68
2021/05/10 04:51:54;;;;;;;5.70;2.88;;;19.60;39.80;;;;;;5096458;28;20024;-68
2021/05/10 04:54:20;;;;;;;4.25;2.25;;;19.60;39.80;;;;;;5096246;28;20032;-68
2021/05/10 04:56:45;;;;;;;5.03;2.63;;;19.60;39.80;;;;;;5096135;28;20032;-68
2021/05/10 04:59:11;;;;;;;5.15;2.67;;;19.60;39.80;;;;;;5096448;28;20085;-68
2021/05/10 05:01:36;;;;;;;4.53;2.60;;;19.60;39.90;;;;;;5094768;28;20023;-68
2021/05/10 05:04:02;;;;;;;5.38;2.55;;;19.60;39.90;;;;;;5096121;28;20024;-67
2021/05/10 05:06:28;;;;;;;4.30;2.42;;;19.60;39.90;;;;;;5095744;28;20024;-68
2021/05/10 05:08:53;;;;;;;5.47;2.67;;;19.50;39.90;;;;;;5095926;28;20020;-68
2021/05/10 05:11:19;;;;;;;5.28;2.55;;;19.60;39.90;;;;;;5095683;28;20488;-68
2021/05/10 05:13:44;;;;;;;5.10;2.55;;;19.60;39.90;;;;;;5095281;28;20028;-68
2021/05/10 05:16:10;;;;;;;5.47;2.50;;;19.60;39.90;;;;;;5095633;28;20103;-68
2021/05/10 05:18:37;;;;;;;4.95;2.50;;;19.60;39.90;;;;;;5095248;28;20425;-68
2021/05/10 05:21:03;;;;;;;4.68;2.65;;;19.60;39.90;;;;;;5095616;28;20028;-69
2021/05/10 05:23:28;;;;;;;5.78;2.78;;;19.60;39.90;;;;;;5095394;28;20527;-68
2021/05/10 05:26:02;;;;;;;4.55;2.58;;;19.60;39.90;;;;;;5095429;28;20412;-68
2021/05/10 05:28:29;;;;;;;5.20;2.90;;;19.60;39.90;;;;;;5095442;28;20020;-68
2021/05/10 05:30:56;;;;;;;5.63;2.63;;;19.60;39.90;;;;;;5095565;28;20097;-68
2021/05/10 05:33:22;;;;;;;5.38;2.67;;;19.60;40.00;;;;;;5095381;28;20024;-68
2021/05/10 05:35:48;;;;;;;4.82;2.40;;;19.60;40.00;;;;;;5095360;28;20468;-67
2021/05/10 05:38:14;;;;;;;4.40;2.33;;;19.60;40.00;;;;;;5094778;28;20039;-68
2021/05/10 05:40:41;;;;;;;8.55;2.72;;;19.60;40.00;;;;;;5095653;28;20024;-68
2021/05/10 05:43:08;;;;;;;5.00;2.63;;;19.60;40.10;;;;;;5095085;28;20028;-68
2021/05/10 05:45:35;;;;;;;4.65;2.35;;;19.60;40.10;;;;;;5095157;28;20020;-68
2021/05/10 05:48:05;;;;;;;4.05;2.20;;;19.60;40.10;;;;;;5095221;28;20398;-68
2021/05/10 05:50:32;;;;;;;4.93;2.78;;;19.60;40.10;;;;;;5095271;28;20025;-68
2021/05/10 05:52:57;;;;;;;5.00;2.70;;;19.60;40.10;;;;;;5094899;28;20024;-68
2021/05/10 05:55:23;;;;;;;5.25;2.70;;;19.60;40.20;;;;;;5095090;28;20084;-68
2021/05/10 05:57:49;;;;;;;4.45;2.55;;;19.50;40.20;;;;;;5095218;28;20032;-68
2021/05/10 06:00:15;;;;;;;5.50;2.90;;;19.50;40.20;;;;;;5094605;28;20020;-68
2021/05/10 06:02:41;;;;;;;4.68;2.78;;;19.50;40.20;;;;;;5094882;28;20085;-68
2021/05/10 06:05:08;;;;;;;4.63;2.75;;;19.50;40.20;;;;;;5095033;28;20082;-68
2021/05/10 06:07:39;;;;;;;4.43;2.38;;;19.60;40.20;;;;;;5094938;28;20031;-68
2021/05/10 06:10:05;;;;;;;5.07;2.60;;;19.50;40.20;;;;;;5095123;28;20371;-68
2021/05/10 06:12:30;;;;;;;4.72;2.50;;;19.50;40.30;;;;;;5094728;28;20106;-68
2021/05/10 06:14:56;;;;;;;4.70;2.35;;;19.50;40.30;;;;;;5094640;28;20044;-68
2021/05/10 06:17:21;;;;;;;5.13;2.60;;;19.50;40.20;;;;;;5094385;28;20058;-68
2021/05/10 06:19:47;;;;;;;5.45;2.35;;;19.60;40.30;;;;;;5094042;28;20035;-68
2021/05/10 06:22:15;;;;;;;5.72;2.70;;;19.60;40.30;;;;;;5094500;28;20062;-68
2021/05/10 06:24:40;;;;;;;4.80;2.35;;;19.60;40.20;;;;;;5093795;28;20089;-68
2021/05/10 06:27:06;;;;;;;4.90;2.60;;;19.60;40.20;;;;;;5094267;28;20028;-68
2021/05/10 06:29:32;;;;;;;5.35;2.65;;;19.60;40.20;;;;;;5094186;28;20027;-68
2021/05/10 06:31:57;;;;;;;4.80;2.47;;;19.50;40.30;;;;;;5093955;28;20035;-68
2021/05/10 06:34:22;;;;;;;4.90;2.42;;;19.60;40.30;;;;;;5094199;28;20016;-68
2021/05/10 06:36:48;;;;;;;5.35;2.90;;;19.60;40.30;;;;;;5094174;28;20063;-68
2021/05/10 06:39:14;;;;;;;4.88;2.58;;;19.50;40.30;;;;;;5093702;28;20038;-68
2021/05/10 06:41:39;;;;;;;4.55;2.33;;;19.60;40.30;;;;;;5094002;28;20020;-68
2021/05/10 06:44:05;;;;;;;3.17;1.80;;;19.50;40.30;;;;;;5093933;28;20089;-67
2021/05/10 06:46:30;;;;;;;4.95;2.60;;;19.50;40.30;;;;;;5094395;28;20026;-68
2021/05/10 06:48:56;;;;;;;5.05;2.80;;;19.60;40.30;;;;;;5096991;28;20031;-68
2021/05/10 06:51:21;;;;;;;5.43;2.65;;;19.60;40.30;;;;;;5093435;28;20020;-68
2021/05/10 06:53:47;;;;;;;5.03;2.63;;;19.60;40.20;;;;;;5094085;28;20043;-68
2021/05/10 06:56:12;;;;;;;4.88;2.40;;;19.60;40.30;;;;;;5092796;28;20035;-68
2021/05/10 06:58:38;;;;;;;4.63;2.53;;;19.60;40.30;;;;;;5093595;28;20061;-67
2021/05/10 07:01:04;;;;;;;4.63;2.22;;;19.60;40.30;;;;;;5093827;28;20032;-68
2021/05/10 07:03:29;;;;;;;3.28;1.88;;;19.60;40.20;;;;;;5093594;28;20076;-68
2021/05/10 07:05:55;;;;;;;4.57;2.30;;;19.60;40.20;;;;;;5093724;28;20024;-68
2021/05/10 07:08:20;;;;;;;4.63;2.50;;;19.70;40.10;;;;;;5093728;28;20028;-68
2021/05/10 07:10:55;;;;;;;4.68;2.67;;;19.80;40.00;;;;;;5093573;28;20031;-68
2021/05/10 07:13:21;;;;;;;4.65;2.28;;;19.80;39.90;;;;;;5093263;28;20032;-67
2021/05/10 07:15:47;;;;;;;4.40;2.25;;;19.70;40.00;;;;;;5091067;28;20032;-69
2021/05/10 07:18:14;;;;;;;4.28;2.25;;;19.70;40.10;;;;;;5106805;28;20061;-67
2021/05/10 07:20:44;;;;;;;5.43;2.60;;;19.70;40.10;;;;;;5112349;28;20028;-68
2021/05/10 07:23:10;;;;;;;5.03;2.35;;;19.70;40.10;;;;;;5113170;28;20046;-68
2021/05/10 07:25:44;;;;;;;6.72;2.97;;;19.80;40.00;;;;;;5098808;28;20044;-67
2021/05/10 07:28:11;;;;;;;3.97;2.13;;;19.90;39.90;;;;;;5092157;28;20115;-69
2021/05/10 07:30:38;;;;;;;4.38;2.30;;;19.90;39.80;;;;;;5092937;28;20034;-67
2021/05/10 07:33:04;;;;;;;5.25;2.58;;;20.00;39.80;;;;;;5092746;28;20024;-67
2021/05/10 07:35:30;;;;;;;5.38;2.47;;;20.00;39.80;;;;;;5091570;28;20090;-69
2021/05/10 07:37:56;;;;;;;3.70;1.92;;;20.00;39.80;;;;;;5096542;28;20070;-69
2021/05/10 07:40:24;;;;;;;4.50;2.35;;;20.00;39.70;;;;;;5096991;28;20057;-67
2021/05/10 07:42:51;;;;;;;4.35;2.22;;;20.00;39.70;;;;;;5096557;28;20063;-67
2021/05/10 07:45:18;;;;;;;3.90;2.08;;;20.10;39.70;;;;;;5097038;28;20127;-67
2021/05/10 07:47:44;;;;;;;4.65;2.30;;;20.00;39.70;;;;;;5096718;28;20035;-67
2021/05/10 07:50:10;;;;;;;3.42;2.00;;;20.00;39.70;;;;;;5096836;28;20035;-67
2021/05/10 07:52:36;;;;;;;4.60;2.42;;;20.10;39.70;;;;;;5096510;28;20032;-66
2021/05/10 07:55:03;;;;;;;3.95;2.15;;;20.10;39.70;;;;;;5096831;28;20116;-66
2021/05/10 07:57:29;;;;;;;3.85;2.28;;;20.10;39.60;;;;;;5096996;28;20085;-68
2021/05/10 07:59:55;;;;;;;4.68;2.38;;;20.10;39.80;;;;;;5096743;28;20380;-66
2021/05/10 08:02:23;;;;;;;4.88;2.65;;;20.10;39.90;;;;;;5096117;28;20032;-69
2021/05/10 08:04:50;;;;;;;4.47;2.08;;;20.10;39.90;;;;;;5096804;28;20463;-69
2021/05/10 08:07:16;;;;;;;4.97;2.60;;;20.10;39.90;;;;;;5096804;28;20070;-68
2021/05/10 08:09:41;;;;;;;4.82;2.45;;;20.10;39.90;;;;;;5095789;28;20055;-67
2021/05/10 08:12:08;;;;;;;4.32;2.28;;;20.10;40.00;;;;;;5096058;28;20020;-69
2021/05/10 08:14:34;;;;;;;3.70;1.90;;;20.00;40.00;;;;;;5096423;28;20028;-70
2021/05/10 08:17:00;;;;;;;4.88;2.50;;;20.00;40.10;;;;;;5096625;28;20064;-67
2021/05/10 08:19:26;;;;;;;4.68;2.25;;;20.10;40.10;;;;;;5096296;28;20019;-67
2021/05/10 08:21:53;;;;;;;4.40;2.35;;;20.00;40.20;;;;;;5096248;28;20024;-65
2021/05/10 08:24:19;;;;;;;4.32;2.10;;;20.00;40.20;;;;;;5095196;28;20548;-68
2021/05/10 08:26:45;;;;;;;5.10;2.25;;;20.00;40.20;;;;;;5096016;28;20115;-68
2021/05/10 08:29:11;;;;;;;3.72;1.73;;;20.00;40.20;;;;;;5078034;28;20024;-68
2021/05/10 08:31:36;;;;;;;4.75;2.30;;;20.00;40.30;;;;;;5080303;28;20107;-70
2021/05/10 08:34:02;;;;;;;3.15;1.83;;;20.10;40.20;;;;;;5097607;28;20080;-70
2021/05/10 08:36:27;;;;;;;3.90;1.92;;;20.10;40.20;;;;;;5089157;28;20571;-68
2021/05/10 08:38:55;;;;;;;4.13;2.08;;;20.10;40.20;;;;;;5073649;28;20046;-67
2021/05/10 08:41:20;;;;;;;4.70;2.40;;;20.10;40.30;;;;;;5075495;28;20107;-66
2021/05/10 08:43:46;;;;;;;4.72;2.17;;;20.10;40.30;;;;;;5075166;28;20701;-68
2021/05/10 08:46:12;;;;;;;4.25;2.40;;;20.10;40.30;;;;;;5075413;28;20405;-66
2021/05/10 08:48:37;;;;;;;3.20;1.80;;;20.10;40.30;;;;;;5075150;28;20020;-65
2021/05/10 08:51:04;;;;;;;4.10;1.90;;;20.10;40.30;;;;;;5076074;28;20427;-66
2021/05/10 08:53:40;;;;;;;3.97;2.08;;;20.10;40.40;;;;;;5076094;28;20020;-65
2021/05/10 08:56:07;;;;;;;4.00;2.17;;;20.10;40.20;;;;;;5080531;28;20025;-66
2021/05/10 08:58:41;;;;;;;4.25;2.20;;;20.20;40.20;;;;;;5085066;28;20140;-71
2021/05/10 09:01:07;;;;;;;4.00;1.88;;;20.20;40.30;;;;;;5083779;28;20405;-67
2021/05/10 09:03:44;;;;;;;4.45;2.38;;;20.10;40.40;;;;;;5083740;28;20037;-68
2021/05/10 09:06:12;;;;;;;3.28;1.77;;;20.10;40.40;;;;;;5082833;28;20021;-67
2021/05/10 09:08:48;;;;;;;3.90;2.20;;;20.10;40.30;;;;;;5079824;28;20111;-65
2021/05/10 09:11:19;;;;;;;4.97;2.22;;;20.10;40.50;;;;;;5077583;28;20040;-66
2021/05/10 09:13:55;;;;;;;3.33;1.80;;;20.10;40.50;;;;;;5079236;28;20090;-66
2021/05/10 09:16:20;;;;;;;3.75;1.77;;;20.10;40.50;;;;;;5074204;28;20051;-65
2021/05/10 09:18:59;;;;;;;4.30;1.90;;;20.10;40.50;;;;;;5074625;28;20476;-66
2021/05/10 09:21:28;;;;;;;4.15;2.00;;;20.10;40.50;;;;;;5074673;28;20362;-67
2021/05/10 09:23:55;;;;;;;5.32;1.95;;;20.10;40.60;;;;;;5074510;28;20052;-67
2021/05/10 09:26:29;;;;;;;3.33;1.80;;;20.10;40.60;;;;;;5074032;28;20039;-67
2021/05/10 09:28:55;;;;;;;3.20;1.70;;;20.10;40.60;;;;;;5074273;28;20444;-68
2021/05/10 09:31:20;;;;;;;4.47;2.08;;;20.10;40.50;;;;;;5074526;28;20024;-67
2021/05/10 09:33:47;;;;;;;3.25;1.77;;;20.10;40.50;;;;;;5074621;28;20089;-66
2021/05/10 09:36:33;;;;;;;3.33;1.88;;;20.10;40.60;;;;;;5073983;28;20033;-67
2021/05/10 09:39:02;;;;;;;3.25;1.67;;;20.10;40.60;;;;;;5074862;28;20029;-65
2021/05/10 09:41:27;;;;;;;3.75;1.92;;;20.10;40.60;;;;;;5075144;28;20032;-65
2021/05/10 09:43:58;;;;;;;3.78;1.90;;;20.10;40.70;;;;;;5073430;28;20020;-66
2021/05/10 09:46:43;;;;;;;4.03;2.13;;;20.10;40.70;;;;;;5074263;28;20016;-66
2021/05/10 09:49:10;;;;;;;4.20;1.85;;;20.10;40.60;;;;;;5073716;28;20468;-66
2021/05/10 09:51:35;;;;;;;4.28;1.90;;;20.20;40.60;;;;;;5074120;28;20396;-66
2021/05/10 09:54:13;;;;;;;3.80;1.75;;;20.20;40.60;;;;;;5074385;28;20028;-66
2021/05/10 09:56:40;;;;;;;3.47;1.92;;;20.20;40.60;;;;;;5074390;28;20151;-66
2021/05/10 09:59:14;;;;;;;4.13;1.80;;;20.30;40.50;;;;;;5073381;28;20052;-66
2021/05/10 10:01:43;;;;;;;;;;;20.30;40.50;;;;;;5074567;28;20039;-66
2021/05/10 10:04:08;;;;;;;3.40;1.60;;;20.30;40.50;;;;;;5076082;28;20223;-66
2021/05/10 10:06:34;;;;;;;3.35;1.55;;;20.40;40.50;;;;;;5074246;28;20104;-66
2021/05/10 10:09:00;;;;;;;4.18;1.88;;;20.30;40.50;;;;;;5073239;28;20032;-68
2021/05/10 10:11:27;;;;;;;3.72;1.60;;;20.30;40.50;;;;;;5073879;28;20032;-69
2021/05/10 10:13:55;;;;;;;5.70;2.00;;;20.30;40.60;;;;;;5073954;28;20115;-72
2021/05/10 10:16:23;;;;;;;3.47;1.88;;;20.30;40.50;;;;;;5073482;28;20468;-68
2021/05/10 10:18:50;;;;;;;4.38;2.00;;;20.30;40.60;;;;;;5072306;28;20119;-67
2021/05/10 10:21:19;;;;;;;3.38;1.83;;;20.40;40.50;;;;;;5073692;28;20028;-67
2021/05/10 10:23:52;;;;;;;3.72;1.95;;;20.40;40.50;;;;;;5072874;28;20048;-67
2021/05/10 10:26:19;;;;;;;4.32;2.00;;;20.40;40.50;;;;;;5073449;28;20056;-68
2021/05/10 10:28:48;;;;;;;3.75;1.77;;;20.40;40.60;;;;;;5073261;28;20082;-67
2021/05/10 10:31:19;;;;;;;3.08;1.63;;;20.40;40.70;;;;;;5073332;28;20024;-68
2021/05/10 10:34:06;;;;;;;5.00;1.90;;;20.40;40.60;;;;;;5073427;28;20385;-68
2021/05/10 10:36:35;;;;;;;3.92;1.80;;;20.30;40.70;;;;;;5073430;28;20025;-70
2021/05/10 10:39:20;;;;;;;3.22;1.88;;;20.40;40.70;;;;;;5073024;28;20076;-69
2021/05/10 10:42:09;;;;;;;2.88;1.58;;;20.40;40.80;;;;;;5073238;28;20093;-68
2021/05/10 10:44:57;;;;;;;3.75;1.92;;;20.30;40.80;;;;;;5073774;28;20048;-69
2021/05/10 10:47:52;;;;;;;3.78;2.00;;;20.30;40.90;;;;;;5072840;28;20074;-69
2021/05/10 10:50:20;;;;;;;3.75;1.80;;;20.40;40.90;;;;;;5072920;28;20431;-68
2021/05/10 10:52:56;;;;;;;3.50;1.80;;;20.40;40.90;;;;;;5073955;28;20058;-70
2021/05/10 10:55:33;;;;;;;4.55;1.77;;;20.40;40.80;;;;;;5073066;28;20439;-69
2021/05/10 10:58:21;;;;;;;3.75;1.60;;;20.40;40.90;;;;;;5072900;28;20110;-68
2021/05/10 11:01:09;;;;;;;3.72;1.75;;;20.40;40.80;;;;;;5072923;28;20036;-66
2021/05/10 11:03:37;;;;;;;3.28;1.80;;;20.40;40.80;;;;;;5073013;28;20028;-68
2021/05/10 11:06:04;;;;;;;3.35;1.67;;;20.40;40.80;;;;;;5072876;28;20017;-67
2021/05/10 11:08:39;;;;;;;3.35;1.60;;;20.40;40.90;;;;;;5072410;28;20036;-67
2021/05/10 11:11:05;;;;;;;4.18;1.83;;;20.40;40.80;;;;;;5071386;28;20114;-68
2021/05/10 11:13:40;;;;;;;3.13;1.63;;;20.40;40.90;;;;;;5072718;28;20032;-67
2021/05/10 11:16:12;;;;;;;3.95;1.90;;;20.40;40.90;;;;;;5072533;28;20032;-69
2021/05/10 11:18:43;;;;;;;3.25;1.75;;;20.40;40.80;;;;;;5074196;28;20091;-69
2021/05/10 11:21:28;;;;;;;3.35;1.80;;;20.50;40.80;;;;;;5083994;28;20024;-72
2021/05/10 11:23:55;;;;;;;3.05;1.67;;;20.50;40.80;;;;;;5092581;28;20048;-70
2021/05/10 11:26:47;;;;;;;4.18;1.60;;;20.40;40.80;;;;;;5092870;28;20035;-71
2021/05/10 11:29:25;;;;;;;3.65;1.90;;;20.50;40.90;;;;;;5092689;28;20570;-67
2021/05/10 11:31:52;;;;;;;3.05;1.63;;;20.50;40.90;;;;;;5091908;28;20032;-72
2021/05/10 11:34:29;;;;;;;4.32;1.90;;;20.50;40.90;;;;;;5092116;28;20123;-68
2021/05/10 11:36:56;;;;;;;3.22;1.85;;;20.50;41.00;;;;;;5092131;28;20560;-69
2021/05/10 11:39:37;;;;;;;2.92;1.50;;;20.50;41.00;;;;;;5082831;28;20036;-71
2021/05/10 11:42:05;;;;;;;3.28;1.60;;;20.50;41.10;;;;;;5085761;28;20047;-70
2021/05/10 11:44:35;;;;;;;4.70;2.13;;;20.50;41.10;;;;;;5091731;28;20485;-70
2021/05/10 11:47:03;;;;;;;3.28;1.58;;;20.50;41.00;;;;;;5070475;28;20052;-70
2021/05/10 11:49:33;;;;;;;3.90;1.58;;;20.60;41.00;;;;;;5070929;28;20028;-69
2021/05/10 11:52:20;;;;;;;4.75;1.83;;;20.60;40.80;;;;;;5069200;28;20039;-70
2021/05/10 11:54:54;;;;;;;3.33;1.50;;;20.60;40.70;;;;;;5073927;28;20101;-70
2021/05/10 11:57:23;;;;;;;4.30;1.87;;;20.70;40.80;;;;;;5082031;28;20043;-72
2021/05/10 12:02:23;;;;;;;4.00;1.52;;;20.70;40.80;;;;;;5071749;28;20029;-72
2021/05/10 12:04:57;;;;;;;4.88;1.60;;;20.70;40.80;;;;;;5070907;28;20039;-72
2021/05/10 12:07:26;;;;;;;4.07;1.80;;;20.70;40.70;;;;;;5079335;28;20032;-72
2021/05/10 12:10:02;;;;;;;3.65;1.80;;;20.80;40.70;;;;;;5084323;28;20078;-72
2021/05/10 12:12:31;;;;;;;3.58;1.70;;;20.80;40.70;;;;;;5091701;28;20038;-67
2021/05/10 12:14:59;;;;;;;3.72;1.70;;;20.70;40.80;;;;;;5090563;28;20035;-70
2021/05/10 12:17:27;;;;;;;3.25;1.52;;;20.70;40.90;;;;;;5090292;28;20068;-70
2021/05/10 12:19:57;;;;;;;5.05;1.58;;;20.70;40.90;;;;;;5091010;28;20020;-71
2021/05/10 12:22:28;;;;;;;3.00;1.60;;;20.70;40.90;;;;;;5090843;28;20031;-71
2021/05/10 12:25:03;;;;;;;2.92;1.48;;;20.70;40.90;;;;;;5093325;28;20051;-72
2021/05/10 12:27:37;;;;;;;2.05;1.25;;;20.70;40.90;;;;;;5094801;28;20039;-72
2021/05/10 12:30:20;;;;;;;3.70;1.88;;;20.70;40.80;;;;;;5094355;28;20025;-76
2021/05/10 12:32:57;;;;;;;3.20;1.48;;;20.70;41.00;;;;;;5086102;28;20024;-73
2021/05/10 12:35:26;;;;;;;2.53;1.15;;;20.70;40.90;;;;;;5086214;28;20491;-75
2021/05/10 12:37:54;;;;;;;2.85;1.50;;;20.80;40.90;;;;;;5094778;28;20380;-74
2021/05/10 12:40:26;;;;;;;3.25;1.45;;;20.70;40.80;;;;;;5074819;28;20020;-77
2021/05/10 12:43:12;;;;;;;3.50;1.60;;;20.70;40.90;;;;;;5074552;28;20029;-75
2021/05/10 12:45:40;;;;;;;4.18;1.55;;;20.70;41.00;;;;;;5073519;28;20115;-72
2021/05/10 12:48:20;;;;;;;2.80;1.50;;;20.70;41.10;;;;;;5074125;28;20052;-69
2021/05/10 12:50:53;;;;;;;3.45;1.60;;;20.70;41.10;;;;;;5074270;28;20035;-73
2021/05/10 12:54:02;;;;;;;1.77;1.23;;;20.70;41.10;;;;;;5083064;28;20380;-70
2021/05/10 12:56:31;;;;;;;3.03;1.52;;;20.80;41.10;;;;;;5055109;28;20354;-70
2021/05/10 12:59:00;;;;;;;4.55;1.92;;;20.80;41.10;;;;;;5078990;28;20074;-71
2021/05/10 13:01:30;;;;;;;3.15;1.67;;;20.70;41.20;;;;;;5094717;28;20375;-72